Time;durP1;ratioP1;P1;durP2;ratioP2;P2;SDS_P1;SDS_P2;PMS_P1;PMS_P2;Temp;Humidity;BMP_temperature;BMP_pressure;BME280_temperature;BME280_humidity;BME280_pressure;Samples;Min_cycle;Max_cycle;Signal;HPM_P1;HPM_P2
2021/05/02 00:01:06;;;;;;;3.40;1.83;;;7.90;75.10;;;;;;5069562;28;20079;-71
2021/05/02 00:03:34;;;;;;;4.30;2.10;;;7.90;75.10;;;;;;5071059;28;20392;-71
2021/05/02 00:06:01;;;;;;;3.77;1.93;;;7.80;75.20;;;;;;5069651;28;20135;-71
2021/05/02 00:08:28;;;;;;;4.10;2.20;;;7.80;75.20;;;;;;5052551;28;20055;-71
2021/05/02 00:10:55;;;;;;;4.50;2.40;;;7.80;75.40;;;;;;5051685;28;20041;-71
2021/05/02 00:13:22;;;;;;;3.87;2.10;;;7.70;75.50;;;;;;5074812;28;20102;-70
2021/05/02 00:15:49;;;;;;;4.68;2.35;;;7.70;75.60;;;;;;5073103;28;20036;-71
2021/05/02 00:18:17;;;;;;;3.50;1.93;;;7.70;75.70;;;;;;5073797;28;20438;-71
2021/05/02 00:20:44;;;;;;;3.50;2.10;;;7.70;75.70;;;;;;5074813;28;20033;-71
2021/05/02 00:23:10;;;;;;;4.20;2.53;;;7.60;75.70;;;;;;5075128;28;20855;-71
2021/05/02 00:25:37;;;;;;;5.23;2.40;;;7.50;75.90;;;;;;5074039;28;20134;-71
2021/05/02 00:28:08;;;;;;;4.67;2.43;;;7.50;76.10;;;;;;5073099;28;20067;-71
2021/05/02 00:30:35;;;;;;;3.70;2.10;;;7.40;76.20;;;;;;5071417;28;20032;-71
2021/05/02 00:33:02;;;;;;;4.70;1.87;;;7.40;76.40;;;;;;5075828;28;20044;-70
2021/05/02 00:35:29;;;;;;;4.30;2.38;;;7.30;76.40;;;;;;5074181;28;20040;-71
2021/05/02 00:37:56;;;;;;;4.23;2.50;;;7.20;76.60;;;;;;5073736;28;20041;-72
2021/05/02 00:40:39;;;;;;;4.67;2.43;;;7.20;76.80;;;;;;5075162;28;20036;-72
2021/05/02 00:43:12;;;;;;;3.40;1.67;;;7.20;77.00;;;;;;5072996;28;20063;-73
2021/05/02 00:46:01;;;;;;;3.00;1.93;;;7.20;77.00;;;;;;5074581;28;20044;-72
2021/05/02 00:48:58;;;;;;;3.97;2.20;;;7.20;77.00;;;;;;5074864;28;20495;-70
2021/05/02 00:51:27;;;;;;;3.70;1.73;;;7.20;76.80;;;;;;5071507;28;20044;-70
2021/05/02 00:53:55;;;;;;;3.10;1.70;;;7.30;76.80;;;;;;5082333;28;20040;-71
2021/05/02 00:56:24;;;;;;;4.07;2.20;;;7.40;76.70;;;;;;5078255;28;20033;-71
2021/05/02 00:59:02;;;;;;;3.40;2.07;;;7.40;76.70;;;;;;5078695;28;20028;-71
2021/05/02 01:01:48;;;;;;;5.00;2.20;;;7.50;76.60;;;;;;5080780;28;20039;-70
2021/05/02 01:04:20;;;;;;;4.63;3.00;;;7.50;76.60;;;;;;5055655;28;20048;-71
2021/05/02 01:06:49;;;;;;;4.33;2.60;;;7.50;76.70;;;;;;5073608;28;20480;-71
2021/05/02 01:09:17;;;;;;;5.40;2.80;;;7.50;76.70;;;;;;5065649;28;20295;-72
2021/05/02 01:11:47;;;;;;;4.63;2.40;;;7.50;76.60;;;;;;5079151;28;20040;-72
2021/05/02 01:14:22;;;;;;;3.80;1.90;;;7.60;76.60;;;;;;5074070;28;20078;-72
2021/05/02 01:16:50;;;;;;;3.17;1.83;;;7.60;76.60;;;;;;5073974;28;20051;-73
2021/05/02 01:19:17;;;;;;;4.43;2.07;;;7.60;76.60;;;;;;5073987;28;20087;-72
2021/05/02 01:21:48;;;;;;;3.22;1.90;;;7.60;76.60;;;;;;5073816;28;20048;-73
2021/05/02 01:24:15;;;;;;;3.97;1.93;;;7.60;76.60;;;;;;5073509;28;20097;-72
2021/05/02 01:26:44;;;;;;;3.60;1.93;;;7.60;76.50;;;;;;5074203;28;20048;-72
2021/05/02 01:29:12;;;;;;;4.40;2.43;;;7.70;76.60;;;;;;5079231;28;20036;-72
2021/05/02 01:31:40;;;;;;;3.47;1.93;;;7.60;76.60;;;;;;5076421;28;20115;-73
2021/05/02 01:34:07;;;;;;;4.53;2.40;;;7.60;76.60;;;;;;5055999;28;20094;-72
2021/05/02 01:36:34;;;;;;;4.32;2.50;;;7.60;76.60;;;;;;5072487;28;20161;-72
2021/05/02 01:39:05;;;;;;;5.30;2.53;;;7.60;76.70;;;;;;5072561;28;20484;-72
2021/05/02 01:41:32;;;;;;;5.73;2.00;;;7.60;76.70;;;;;;5073619;28;20029;-73
2021/05/02 01:43:59;;;;;;;3.87;2.20;;;7.60;76.60;;;;;;5071955;28;20064;-73
2021/05/02 01:46:33;;;;;;;4.97;2.63;;;7.70;76.70;;;;;;5073108;28;20068;-73
2021/05/02 01:49:00;;;;;;;7.57;2.60;;;7.60;76.80;;;;;;5073582;28;20040;-73
2021/05/02 01:51:29;;;;;;;4.03;2.30;;;7.60;76.80;;;;;;5062319;28;20086;-73
2021/05/02 01:53:56;;;;;;;6.10;3.00;;;7.60;76.80;;;;;;5073311;28;20488;-73
2021/05/02 01:56:23;;;;;;;5.07;2.37;;;7.60;77.00;;;;;;5054969;28;20040;-73
2021/05/02 01:58:50;;;;;;;5.47;2.17;;;7.60;77.00;;;;;;5063770;28;20095;-73
2021/05/02 02:01:19;;;;;;;3.17;1.60;;;7.60;76.90;;;;;;5052105;28;20037;-72
2021/05/02 02:03:47;;;;;;;3.63;2.03;;;7.60;76.90;;;;;;5064129;28;20369;-72
2021/05/02 02:06:15;;;;;;;4.30;2.57;;;7.50;76.80;;;;;;5073304;28;20570;-73
2021/05/02 02:08:43;;;;;;;7.87;2.70;;;7.50;77.00;;;;;;5072743;28;20040;-72
2021/05/02 02:11:10;;;;;;;4.30;2.47;;;7.50;77.00;;;;;;5051903;28;20489;-72
2021/05/02 02:13:37;;;;;;;5.30;2.70;;;7.40;77.00;;;;;;5044771;28;20047;-72
2021/05/02 02:16:07;;;;;;;3.90;2.03;;;7.30;77.10;;;;;;5071563;28;20049;-72
2021/05/02 02:18:35;;;;;;;3.63;1.47;;;7.30;77.70;;;;;;5071936;28;20055;-73
2021/05/02 02:21:02;;;;;;;2.90;1.40;;;7.20;77.10;;;;;;5072764;28;20430;-72
2021/05/02 02:23:34;;;;;;;3.20;1.50;;;7.20;77.20;;;;;;5079938;28;20039;-73
2021/05/02 02:26:23;;;;;;;3.23;1.70;;;7.10;77.20;;;;;;5073939;28;20045;-72
2021/05/02 02:28:52;;;;;;;3.50;1.70;;;7.00;77.30;;;;;;5080451;28;20040;-72
2021/05/02 02:31:20;;;;;;;2.83;1.30;;;6.90;77.40;;;;;;5072569;28;20028;-73
2021/05/02 02:33:47;;;;;;;2.97;1.40;;;6.80;77.50;;;;;;5072587;28;20415;-72
2021/05/02 02:36:14;;;;;;;2.13;1.20;;;6.70;77.60;;;;;;5071654;28;20044;-72
2021/05/02 02:38:42;;;;;;;3.43;1.03;;;6.70;77.70;;;;;;5072608;28;20550;-73
2021/05/02 02:41:17;;;;;;;3.17;1.07;;;6.60;77.80;;;;;;5071311;28;20442;-72
2021/05/02 02:43:55;;;;;;;2.80;1.07;;;6.60;77.80;;;;;;5077526;28;20099;-72
2021/05/02 02:46:23;;;;;;;2.97;1.10;;;6.60;77.90;;;;;;5071429;28;20125;-72
2021/05/02 02:48:56;;;;;;;2.23;1.10;;;6.60;78.00;;;;;;5070783;28;20036;-73
2021/05/02 02:51:25;;;;;;;2.42;0.70;;;6.70;78.00;;;;;;5070978;28;20546;-73
2021/05/02 02:53:55;;;;;;;1.30;0.80;;;6.70;77.80;;;;;;5071449;28;20033;-70
2021/05/02 02:56:23;;;;;;;4.40;1.33;;;6.80;77.70;;;;;;5071416;28;20115;-70
2021/05/02 02:59:03;;;;;;;2.40;0.90;;;6.70;77.70;;;;;;5070067;28;20047;-70
2021/05/02 03:01:29;;;;;;;4.87;1.40;;;6.80;77.70;;;;;;5071695;28;20040;-71
2021/05/02 03:04:01;;;;;;;4.37;1.83;;;6.80;77.90;;;;;;5049983;28;20547;-70
2021/05/02 03:06:29;;;;;;;4.68;2.20;;;6.80;77.90;;;;;;5069964;28;21253;-70
2021/05/02 03:08:56;;;;;;;4.00;2.40;;;6.80;78.10;;;;;;5071581;28;20032;-71
2021/05/02 03:11:25;;;;;;;4.53;2.33;;;6.70;78.10;;;;;;5071600;28;20082;-71
2021/05/02 03:13:53;;;;;;;6.87;1.93;;;6.70;78.20;;;;;;5070041;28;20032;-71
2021/05/02 03:16:25;;;;;;;6.03;2.87;;;6.70;78.20;;;;;;5069738;28;20044;-71
2021/05/02 03:19:16;;;;;;;4.13;2.40;;;6.70;78.30;;;;;;5069575;28;20047;-71
2021/05/02 03:21:42;;;;;;;3.87;1.90;;;6.70;78.30;;;;;;5070443;28;20047;-70
2021/05/02 03:24:13;;;;;;;4.47;2.63;;;6.60;78.40;;;;;;5069794;28;20036;-70
2021/05/02 03:26:41;;;;;;;5.10;2.77;;;6.70;78.70;;;;;;5071555;28;20035;-70
2021/05/02 03:29:11;;;;;;;3.67;1.50;;;6.60;78.70;;;;;;5071326;28;20041;-71
2021/05/02 03:31:38;;;;;;;3.67;1.40;;;6.70;78.70;;;;;;5071726;28;20040;-70
2021/05/02 03:34:09;;;;;;;4.60;1.37;;;6.70;78.60;;;;;;5071049;28;20036;-70
2021/05/02 03:36:44;;;;;;;2.87;1.47;;;6.70;78.70;;;;;;5069775;28;20029;-70
2021/05/02 03:39:11;;;;;;;3.40;1.50;;;6.70;78.90;;;;;;5069850;28;20051;-70
2021/05/02 03:41:38;;;;;;;3.73;1.40;;;6.70;78.80;;;;;;5070277;28;20476;-70
2021/05/02 03:44:05;;;;;;;3.23;1.30;;;6.70;78.80;;;;;;5069827;28;20060;-70
2021/05/02 03:46:32;;;;;;;2.80;1.40;;;6.70;78.70;;;;;;5049590;28;20433;-70
2021/05/02 03:49:02;;;;;;;3.87;1.43;;;6.70;78.80;;;;;;5063087;28;20040;-72
2021/05/02 03:51:32;;;;;;;2.77;1.33;;;6.70;79.00;;;;;;5070622;28;20036;-72
2021/05/02 03:53:59;;;;;;;4.67;1.37;;;6.60;78.90;;;;;;5069927;28;20739;-70
2021/05/02 03:56:37;;;;;;;3.50;1.53;;;6.60;79.10;;;;;;5071326;28;20044;-70
2021/05/02 03:59:10;;;;;;;3.47;1.33;;;6.50;79.20;;;;;;5070056;28;20488;-70
2021/05/02 04:01:41;;;;;;;2.88;1.27;;;6.40;79.20;;;;;;5069720;28;20045;-70
2021/05/02 04:04:12;;;;;;;3.60;1.57;;;6.30;79.40;;;;;;5070699;28;20044;-70
2021/05/02 04:06:39;;;;;;;3.97;1.80;;;6.30;79.50;;;;;;5071014;28;20055;-70
2021/05/02 04:09:07;;;;;;;4.23;1.60;;;6.20;79.90;;;;;;5070778;28;20048;-70
2021/05/02 04:11:35;;;;;;;4.37;1.57;;;6.20;79.90;;;;;;5071238;28;20434;-70
2021/05/02 04:14:06;;;;;;;5.00;1.80;;;6.20;80.10;;;;;;5065452;28;20045;-70
2021/05/02 04:16:33;;;;;;;3.43;1.97;;;6.20;80.10;;;;;;5061813;28;20098;-70
2021/05/02 04:19:00;;;;;;;3.90;1.80;;;6.10;80.10;;;;;;5069592;28;20040;-70
2021/05/02 04:21:27;;;;;;;4.07;1.77;;;6.10;80.10;;;;;;5036601;28;20037;-70
2021/05/02 04:23:54;;;;;;;3.77;1.43;;;6.10;80.20;;;;;;5069348;28;20118;-70
2021/05/02 04:26:21;;;;;;;4.47;2.23;;;6.00;80.20;;;;;;5051578;28;20099;-70
2021/05/02 04:28:47;;;;;;;4.90;1.93;;;6.00;80.80;;;;;;5070745;28;20040;-70
2021/05/02 04:31:14;;;;;;;4.50;1.77;;;6.00;80.70;;;;;;5052691;28;20045;-70
2021/05/02 04:33:40;;;;;;;3.20;1.40;;;6.00;80.70;;;;;;5070505;28;20039;-70
2021/05/02 04:36:07;;;;;;;3.13;1.53;;;6.00;80.70;;;;;;5049735;28;20133;-70
2021/05/02 04:38:34;;;;;;;4.87;1.70;;;6.00;80.70;;;;;;5059155;28;20047;-70
2021/05/02 04:41:01;;;;;;;3.57;1.47;;;6.00;80.60;;;;;;5069020;28;20045;-72
2021/05/02 04:43:28;;;;;;;3.67;1.37;;;6.00;80.50;;;;;;5059100;28;20488;-72
2021/05/02 04:45:55;;;;;;;3.90;1.10;;;6.00;80.60;;;;;;5069479;28;20045;-70
2021/05/02 04:48:22;;;;;;;3.20;1.40;;;6.00;80.50;;;;;;5070070;28;20039;-70
2021/05/02 04:50:49;;;;;;;5.00;2.93;;;6.00;80.60;;;;;;5070821;28;20074;-70
2021/05/02 04:53:15;;;;;;;3.67;1.23;;;5.90;80.80;;;;;;5068873;28;20043;-70
2021/05/02 04:55:42;;;;;;;4.50;1.47;;;5.90;80.80;;;;;;5070605;28;20040;-70
2021/05/02 04:58:08;;;;;;;3.47;1.23;;;5.90;81.10;;;;;;5069404;28;20056;-70
2021/05/02 05:00:35;;;;;;;3.73;1.40;;;5.90;81.00;;;;;;5072858;28;20102;-70
2021/05/02 05:03:02;;;;;;;2.97;1.30;;;5.80;81.20;;;;;;5073440;28;20102;-70
2021/05/02 05:05:29;;;;;;;3.23;2.00;;;5.90;81.40;;;;;;5072731;28;20049;-70
2021/05/02 05:07:56;;;;;;;2.83;1.13;;;5.90;81.10;;;;;;5072868;28;20043;-70
2021/05/02 05:10:23;;;;;;;2.80;1.23;;;5.90;81.20;;;;;;5073936;28;20094;-70
2021/05/02 05:12:50;;;;;;;3.40;1.50;;;5.90;81.20;;;;;;5073822;28;20438;-70
2021/05/02 05:15:17;;;;;;;4.07;1.33;;;5.90;81.10;;;;;;5066483;28;20048;-70
2021/05/02 05:17:44;;;;;;;3.63;1.40;;;6.00;81.10;;;;;;5039720;28;20412;-70
2021/05/02 05:20:11;;;;;;;4.73;1.97;;;6.00;81.10;;;;;;5073662;28;20074;-70
2021/05/02 05:22:38;;;;;;;6.30;2.10;;;6.00;81.10;;;;;;5054355;28;20572;-70
2021/05/02 05:25:06;;;;;;;4.17;1.80;;;6.10;81.10;;;;;;5073085;28;20041;-70
2021/05/02 05:27:32;;;;;;;3.10;1.63;;;6.10;81.00;;;;;;5071579;28;20044;-70
2021/05/02 05:29:59;;;;;;;4.90;1.70;;;6.20;80.90;;;;;;5073474;28;20037;-70
2021/05/02 05:32:26;;;;;;;4.90;1.43;;;6.20;80.80;;;;;;5071324;28;20033;-70
2021/05/02 05:34:52;;;;;;;3.30;1.40;;;6.20;80.90;;;;;;5074009;28;20059;-72
2021/05/02 05:37:19;;;;;;;4.30;1.97;;;6.20;80.80;;;;;;5073553;28;20145;-72
2021/05/02 05:39:46;;;;;;;4.37;1.27;;;6.30;81.00;;;;;;5073619;28;20400;-72
2021/05/02 05:42:12;;;;;;;8.87;2.27;;;6.30;80.70;;;;;;5071822;28;20063;-72
2021/05/02 05:44:39;;;;;;;4.60;2.27;;;6.40;80.70;;;;;;5072193;28;20043;-72
2021/05/02 05:47:05;;;;;;;2.73;1.30;;;6.50;80.60;;;;;;5073225;28;20496;-72
2021/05/02 05:49:33;;;;;;;4.10;1.60;;;6.50;80.40;;;;;;5072950;28;20045;-73
2021/05/02 05:51:59;;;;;;;2.93;1.10;;;6.60;80.30;;;;;;5071837;28;20362;-72
2021/05/02 05:54:26;;;;;;;3.47;1.40;;;6.70;80.20;;;;;;5071520;28;20090;-72
2021/05/02 05:56:53;;;;;;;3.17;1.37;;;6.80;80.10;;;;;;5073044;28;20040;-72
2021/05/02 05:59:19;;;;;;;3.27;1.67;;;6.80;80.00;;;;;;5071213;28;20491;-72
2021/05/02 06:01:46;;;;;;;5.00;1.50;;;6.90;80.00;;;;;;5071112;28;20052;-72
2021/05/02 06:04:13;;;;;;;4.60;1.73;;;7.00;79.90;;;;;;5063009;28;20377;-72
2021/05/02 06:06:40;;;;;;;4.83;1.93;;;7.10;79.90;;;;;;5073017;28;20033;-72
2021/05/02 06:09:08;;;;;;;4.27;2.20;;;7.10;79.70;;;;;;5070722;28;20044;-72
2021/05/02 06:11:35;;;;;;;3.53;1.37;;;7.30;79.70;;;;;;5073317;28;20090;-72
2021/05/02 06:14:04;;;;;;;2.87;1.23;;;7.40;79.50;;;;;;5072128;28;20040;-72
2021/05/02 06:16:32;;;;;;;4.53;1.40;;;7.50;79.30;;;;;;5055267;28;20064;-72
2021/05/02 06:18:59;;;;;;;4.60;1.47;;;7.60;79.10;;;;;;5071698;28;20044;-72
2021/05/02 06:21:27;;;;;;;4.87;1.60;;;7.60;78.80;;;;;;5071637;28;20105;-72
2021/05/02 06:23:55;;;;;;;3.70;1.17;;;7.70;78.80;;;;;;5054258;28;20048;-73
2021/05/02 06:26:23;;;;;;;5.83;1.80;;;7.70;78.60;;;;;;5072104;28;20040;-73
2021/05/02 06:28:51;;;;;;;5.17;1.30;;;7.80;78.30;;;;;;5071148;28;20086;-73
2021/05/02 06:31:21;;;;;;;6.70;1.50;;;7.90;78.20;;;;;;5072205;28;20113;-71
2021/05/02 06:33:48;;;;;;;2.77;1.50;;;8.00;78.00;;;;;;5072051;28;20054;-70
2021/05/02 06:36:16;;;;;;;3.83;1.47;;;8.10;77.80;;;;;;5050840;28;20056;-72
2021/05/02 06:38:42;;;;;;;3.40;1.35;;;8.20;77.40;;;;;;5063215;28;20066;-71
2021/05/02 06:41:09;;;;;;;3.15;1.10;;;8.20;77.20;;;;;;5072221;28;20044;-70
2021/05/02 06:43:36;;;;;;;3.83;1.10;;;8.30;77.00;;;;;;5071249;28;20488;-70
2021/05/02 06:46:03;;;;;;;3.13;0.80;;;8.50;77.00;;;;;;5071584;28;20392;-70
2021/05/02 06:48:30;;;;;;;2.33;1.40;;;8.60;76.70;;;;;;5070744;28;20041;-72
2021/05/02 06:51:03;;;;;;;3.22;0.93;;;8.70;76.50;;;;;;5053557;28;20051;-72
2021/05/02 06:53:30;;;;;;;4.43;0.95;;;8.80;76.00;;;;;;5071870;28;20036;-73
2021/05/02 06:55:56;;;;;;;5.40;1.00;;;8.90;75.50;;;;;;5070406;28;20117;-73
2021/05/02 06:58:23;;;;;;;3.92;1.05;;;8.90;74.90;;;;;;5071857;28;20079;-72
2021/05/02 07:00:49;;;;;;;3.50;1.02;;;9.00;74.90;;;;;;5070019;28;20044;-72
2021/05/02 07:03:17;;;;;;;2.45;0.70;;;9.00;74.10;;;;;;5071079;28;20048;-73
2021/05/02 07:05:44;;;;;;;3.42;0.85;;;9.10;74.10;;;;;;5070892;28;20086;-73
2021/05/02 07:08:10;;;;;;;2.60;0.90;;;9.20;74.00;;;;;;5051061;28;20346;-73
2021/05/02 07:10:37;;;;;;;3.17;0.60;;;9.30;74.00;;;;;;5070013;28;20409;-72
2021/05/02 07:13:03;;;;;;;1.70;0.60;;;9.30;73.80;;;;;;5069853;28;20040;-73
2021/05/02 07:15:30;;;;;;;4.75;0.70;;;9.50;73.50;;;;;;5070460;28;20497;-72
2021/05/02 07:17:56;;;;;;;4.82;1.00;;;9.60;72.90;;;;;;5071300;28;20392;-71
2021/05/02 07:20:23;;;;;;;3.58;0.80;;;9.60;72.10;;;;;;5069365;28;20492;-70
2021/05/02 07:22:54;;;;;;;2.90;0.90;;;9.70;71.80;;;;;;5070034;28;20376;-71
2021/05/02 07:25:22;;;;;;;1.95;1.10;;;9.70;70.30;;;;;;5071620;28;20377;-71
2021/05/02 07:27:51;;;;;;;2.67;1.10;;;9.60;69.80;;;;;;5069552;28;20040;-71
2021/05/02 07:30:19;;;;;;;2.58;1.00;;;9.50;68.90;;;;;;5070899;28;20044;-71
2021/05/02 07:32:49;;;;;;;3.28;0.80;;;9.40;69.10;;;;;;5050647;28;20495;-71
2021/05/02 07:35:16;;;;;;;2.80;0.73;;;9.50;69.70;;;;;;5070002;28;20064;-71
2021/05/02 07:37:42;;;;;;;2.35;0.70;;;9.70;69.40;;;;;;5070078;28;20052;-69
2021/05/02 07:40:09;;;;;;;1.17;0.50;;;9.80;69.40;;;;;;5070027;28;20447;-71
2021/05/02 07:42:37;;;;;;;1.33;0.45;;;10.00;69.50;;;;;;5048157;28;20056;-71
2021/05/02 07:45:04;;;;;;;2.70;0.52;;;10.20;68.80;;;;;;5069593;28;20280;-72
2021/05/02 07:47:31;;;;;;;1.55;0.40;;;10.30;68.60;;;;;;5070430;28;20055;-71
2021/05/02 07:49:58;;;;;;;2.65;0.60;;;10.30;68.10;;;;;;5069439;28;20398;-71
2021/05/02 07:52:25;;;;;;;3.58;0.80;;;10.40;67.50;;;;;;5049899;28;20098;-72
2021/05/02 07:54:51;;;;;;;2.97;0.98;;;10.20;65.10;;;;;;5068908;28;20041;-72
2021/05/02 07:57:18;;;;;;;2.70;0.63;;;10.00;64.60;;;;;;5071611;28;20060;-71
2021/05/02 07:59:45;;;;;;;2.67;0.63;;;9.90;65.40;;;;;;5070358;28;20040;-71
2021/05/02 08:02:11;;;;;;;1.25;0.43;;;10.00;65.80;;;;;;5069664;28;20098;-71
2021/05/02 08:04:40;;;;;;;3.35;0.40;;;10.10;65.80;;;;;;5070696;28;20045;-70
2021/05/02 08:07:06;;;;;;;1.88;0.60;;;10.10;65.70;;;;;;5069830;28;20036;-71
2021/05/02 08:09:34;;;;;;;5.63;0.50;;;10.10;64.40;;;;;;5070837;28;20051;-71
2021/05/02 08:12:02;;;;;;;4.28;0.68;;;10.00;64.00;;;;;;5071227;28;20063;-70
2021/05/02 08:14:29;;;;;;;1.98;0.75;;;10.00;63.90;;;;;;5069386;28;20047;-71
2021/05/02 08:16:56;;;;;;;2.50;0.70;;;10.00;64.30;;;;;;5071118;28;20045;-71
2021/05/02 08:19:23;;;;;;;3.35;0.77;;;10.20;62.60;;;;;;5068377;28;20087;-71
2021/05/02 08:21:51;;;;;;;1.67;0.50;;;10.30;62.20;;;;;;5070167;28;20036;-71
2021/05/02 08:24:17;;;;;;;1.23;0.50;;;10.60;62.30;;;;;;5069312;28;20052;-71
2021/05/02 08:26:44;;;;;;;0.88;0.40;;;10.80;61.50;;;;;;5069184;28;20082;-71
2021/05/02 08:29:11;;;;;;;2.72;0.70;;;10.90;60.30;;;;;;5070198;28;20044;-71
2021/05/02 08:31:38;;;;;;;1.55;0.50;;;10.70;60.30;;;;;;5069383;28;20041;-70
2021/05/02 08:34:05;;;;;;;3.67;0.60;;;10.50;60.50;;;;;;5074670;28;20048;-70
2021/05/02 08:36:32;;;;;;;1.85;0.40;;;10.40;61.00;;;;;;5074745;28;20048;-71
2021/05/02 08:38:59;;;;;;;1.98;0.73;;;10.20;61.20;;;;;;5072437;28;20063;-71
2021/05/02 08:41:26;;;;;;;3.33;0.70;;;10.20;61.70;;;;;;5052626;28;20468;-71
2021/05/02 08:44:02;;;;;;;2.17;0.60;;;10.30;61.50;;;;;;5070410;28;20051;-70
2021/05/02 08:46:30;;;;;;;1.30;0.40;;;10.40;61.30;;;;;;5072847;28;20043;-72
2021/05/02 08:48:57;;;;;;;0.65;0.28;;;10.70;61.40;;;;;;5074055;28;20121;-70
2021/05/02 08:51:23;;;;;;;1.88;0.40;;;10.80;61.10;;;;;;5074181;28;20040;-71
2021/05/02 08:53:51;;;;;;;1.20;0.50;;;11.00;60.20;;;;;;5073646;28;20040;-70
2021/05/02 08:56:17;;;;;;;2.17;0.52;;;11.20;60.30;;;;;;5072394;28;20048;-72
2021/05/02 08:58:44;;;;;;;1.25;0.30;;;11.50;59.80;;;;;;5074091;28;20045;-71
2021/05/02 09:01:10;;;;;;;1.20;0.20;;;11.70;58.50;;;;;;5071729;28;20105;-70
2021/05/02 09:03:47;;;;;;;0.93;0.30;;;11.80;58.60;;;;;;5061807;28;20149;-71
2021/05/02 09:06:28;;;;;;;2.80;0.30;;;11.90;58.80;;;;;;5072434;28;20044;-71
2021/05/02 09:08:57;;;;;;;2.22;0.65;;;11.70;58.30;;;;;;5071735;28;20086;-71
2021/05/02 09:11:35;;;;;;;1.95;0.50;;;11.40;58.20;;;;;;5074552;28;20582;-70
2021/05/02 09:14:11;;;;;;;2.63;0.38;;;11.20;58.00;;;;;;5072387;28;20408;-70
2021/05/02 09:16:46;;;;;;;1.23;0.40;;;11.30;58.50;;;;;;5052726;28;20106;-70
2021/05/02 09:19:13;;;;;;;0.80;0.30;;;11.40;57.70;;;;;;5072122;28;20033;-70
2021/05/02 09:21:40;;;;;;;3.72;0.35;;;11.60;57.70;;;;;;5071981;28;20045;-70
2021/05/02 09:24:31;;;;;;;1.58;0.40;;;11.80;57.30;;;;;;5054851;28;20105;-71
2021/05/02 09:27:08;;;;;;;2.88;0.50;;;12.20;55.80;;;;;;5073365;28;20134;-71
2021/05/02 09:29:36;;;;;;;1.85;0.40;;;12.20;55.60;;;;;;5073127;28;20054;-70
2021/05/02 09:32:04;;;;;;;1.08;0.40;;;12.10;55.60;;;;;;5073632;28;20045;-71
2021/05/02 09:34:30;;;;;;;1.48;0.50;;;12.20;56.00;;;;;;5072964;28;20074;-71
2021/05/02 09:37:04;;;;;;;1.42;0.45;;;12.30;56.20;;;;;;5073385;28;20040;-71
2021/05/02 09:39:52;;;;;;;1.38;0.38;;;12.40;55.90;;;;;;5069732;28;20079;-72
2021/05/02 09:42:39;;;;;;;1.27;0.30;;;12.20;55.20;;;;;;5073262;28;20088;-71
2021/05/02 09:45:10;;;;;;;2.08;0.40;;;12.20;55.10;;;;;;5060735;28;20044;-71
2021/05/02 09:47:42;;;;;;;1.50;0.30;;;12.00;54.70;;;;;;5071537;28;20064;-71
2021/05/02 09:50:09;;;;;;;0.85;0.30;;;12.00;54.70;;;;;;5062605;28;20111;-71
2021/05/02 09:53:01;;;;;;;3.47;0.40;;;12.20;54.80;;;;;;5071668;28;20058;-72
2021/05/02 09:55:34;;;;;;;1.38;0.30;;;12.50;54.60;;;;;;5059188;28;20058;-71
2021/05/02 09:58:11;;;;;;;0.65;0.25;;;12.70;54.40;;;;;;5081855;28;20075;-70
2021/05/02 10:00:43;;;;;;;0.88;0.47;;;12.70;54.10;;;;;;5071776;28;20048;-71
2021/05/02 10:03:14;;;;;;;0.93;0.43;;;12.60;54.10;;;;;;5072865;28;20327;-72
2021/05/02 10:06:09;;;;;;;1.92;0.30;;;12.40;54.50;;;;;;5073112;28;20291;-71
2021/05/02 10:08:41;;;;;;;0.73;0.20;;;12.20;54.50;;;;;;5072514;28;20043;-70
2021/05/02 10:11:11;;;;;;;0.43;0.20;;;12.10;54.80;;;;;;5073336;28;20044;-70
2021/05/02 10:13:39;;;;;;;0.88;0.30;;;12.10;55.40;;;;;;5071586;28;20039;-70
2021/05/02 10:16:10;;;;;;;1.20;0.50;;;12.10;55.50;;;;;;5068135;28;20045;-70
2021/05/02 10:18:37;;;;;;;0.80;0.30;;;12.00;54.70;;;;;;5072793;28;20044;-70
2021/05/02 10:21:06;;;;;;;2.10;0.30;;;11.90;55.30;;;;;;5071745;28;20040;-71
2021/05/02 10:23:35;;;;;;;0.90;0.35;;;11.70;54.60;;;;;;5060617;28;20099;-71
2021/05/02 10:26:04;;;;;;;2.22;0.32;;;11.50;54.40;;;;;;5071555;28;20098;-71
2021/05/02 10:28:32;;;;;;;2.50;0.30;;;11.30;54.20;;;;;;5038526;28;20411;-70
2021/05/02 10:31:02;;;;;;;1.25;0.30;;;11.20;54.80;;;;;;5057464;28;20052;-70
2021/05/02 10:33:36;;;;;;;0.77;0.40;;;11.30;54.40;;;;;;5071448;28;20032;-70
2021/05/02 10:36:05;;;;;;;1.20;0.30;;;11.60;54.00;;;;;;5072446;28;20037;-70
2021/05/02 10:38:54;;;;;;;0.73;0.20;;;11.90;53.10;;;;;;5071107;28;20322;-71
2021/05/02 10:41:35;;;;;;;0.30;0.15;;;12.30;52.70;;;;;;5072467;28;20453;-70
2021/05/02 10:44:05;;;;;;;0.70;0.20;;;12.60;52.20;;;;;;5071199;28;20106;-70
2021/05/02 10:46:41;;;;;;;0.70;0.20;;;12.90;51.20;;;;;;5072178;28;20044;-70
2021/05/02 10:49:09;;;;;;;0.90;0.30;;;13.10;50.80;;;;;;5070643;28;20048;-70
2021/05/02 10:51:36;;;;;;;2.05;0.30;;;13.40;50.70;;;;;;5071925;28;20511;-70
2021/05/02 10:54:12;;;;;;;0.57;0.35;;;13.70;50.60;;;;;;5070556;28;20036;-71
2021/05/02 10:56:56;;;;;;;0.35;0.20;;;13.90;49.50;;;;;;5070002;28;20098;-71
2021/05/02 10:59:26;;;;;;;0.60;0.20;;;14.10;49.70;;;;;;5072308;28;20049;-71
2021/05/02 11:01:54;;;;;;;1.00;0.22;;;14.30;49.30;;;;;;5070516;28;20055;-72
2021/05/02 11:04:59;;;;;;;0.50;0.10;;;14.30;49.20;;;;;;5070103;28;20049;-71
2021/05/02 11:07:45;;;;;;;0.60;0.20;;;14.40;48.10;;;;;;5070599;28;20491;-74
2021/05/02 11:10:17;;;;;;;0.98;0.20;;;14.60;47.40;;;;;;5071323;28;20040;-74
2021/05/02 11:12:46;;;;;;;1.67;0.30;;;14.70;46.40;;;;;;5054327;28;20040;-75
2021/05/02 11:15:31;;;;;;;0.43;0.13;;;14.50;46.50;;;;;;5072229;28;20078;-74
2021/05/02 11:17:58;;;;;;;0.40;0.17;;;14.80;46.80;;;;;;5072059;28;20123;-72
2021/05/02 11:20:44;;;;;;;0.88;0.20;;;14.80;47.10;;;;;;5087463;28;20420;-72
2021/05/02 11:23:10;;;;;;;0.55;0.22;;;14.40;47.00;;;;;;5071474;28;20564;-71
2021/05/02 11:25:44;;;;;;;0.50;0.30;;;13.90;47.90;;;;;;5053816;28;20039;-72
2021/05/02 11:28:11;;;;;;;0.38;0.20;;;13.60;48.30;;;;;;5070445;28;20376;-72
2021/05/02 11:30:47;;;;;;;0.75;0.20;;;13.40;49.00;;;;;;5071686;28;20099;-74
2021/05/02 11:33:23;;;;;;;1.20;0.20;;;13.30;49.00;;;;;;5070586;28;20048;-73
2021/05/02 11:35:57;;;;;;;0.98;0.25;;;13.20;49.70;;;;;;5067048;28;20373;-72
2021/05/02 11:38:39;;;;;;;0.93;0.10;;;13.30;50.10;;;;;;5053322;28;20102;-72
2021/05/02 11:41:08;;;;;;;1.27;0.30;;;13.80;49.70;;;;;;5074459;28;20062;-69
2021/05/02 11:43:37;;;;;;;0.73;0.22;;;14.00;49.10;;;;;;5077069;28;20495;-71
2021/05/02 11:46:06;;;;;;;0.38;0.28;;;14.40;48.20;;;;;;5069579;28;20500;-70
2021/05/02 11:48:41;;;;;;;1.20;0.40;;;14.10;47.70;;;;;;5071150;28;20107;-72
2021/05/02 11:51:27;;;;;;;2.33;0.50;;;13.80;46.80;;;;;;5069868;28;20041;-72
2021/05/02 11:53:58;;;;;;;0.80;0.40;;;13.40;46.60;;;;;;5070819;28;20090;-70
2021/05/02 11:56:25;;;;;;;1.45;0.30;;;13.10;47.30;;;;;;5071299;28;20052;-69
2021/05/02 11:58:54;;;;;;;1.02;0.20;;;13.00;48.10;;;;;;5068209;28;20045;-72
2021/05/02 12:01:24;;;;;;;1.13;0.30;;;12.90;48.30;;;;;;5070127;28;20045;-72
2021/05/02 12:03:52;;;;;;;2.35;0.30;;;12.70;48.60;;;;;;5070854;28;20040;-72
2021/05/02 12:06:32;;;;;;;0.70;0.20;;;12.60;49.10;;;;;;5069409;28;20049;-72
2021/05/02 12:09:01;;;;;;;1.13;0.47;;;12.60;49.50;;;;;;5073879;28;20090;-70
2021/05/02 12:11:28;;;;;;;2.63;0.50;;;12.80;49.20;;;;;;5075365;28;20049;-70
2021/05/02 12:13:56;;;;;;;0.60;0.20;;;13.20;48.90;;;;;;5076487;28;20103;-72
2021/05/02 12:16:28;;;;;;;0.85;0.32;;;13.60;48.00;;;;;;5101686;28;20052;-70
2021/05/02 12:19:06;;;;;;;1.75;0.30;;;14.50;47.10;;;;;;5083180;28;20047;-70
2021/05/02 12:21:37;;;;;;;1.55;0.22;;;15.30;46.40;;;;;;5074896;28;20048;-71
2021/05/02 12:24:29;;;;;;;0.93;0.30;;;16.10;46.00;;;;;;5057076;28;20045;-70
2021/05/02 12:27:03;;;;;;;2.22;0.20;;;16.70;44.40;;;;;;5075154;28;20044;-71
2021/05/02 12:29:33;;;;;;;0.80;0.38;;;16.40;44.10;;;;;;5074466;28;20447;-70
2021/05/02 12:32:08;;;;;;;0.43;0.30;;;15.70;44.80;;;;;;5066800;28;20041;-72
2021/05/02 12:34:37;;;;;;;1.05;0.30;;;15.80;45.00;;;;;;5069017;28;20043;-71
2021/05/02 12:37:09;;;;;;;2.78;0.43;;;16.30;44.60;;;;;;5061963;28;20063;-73
2021/05/02 12:39:38;;;;;;;1.52;0.30;;;17.00;44.10;;;;;;5064869;28;20036;-73
2021/05/02 12:42:05;;;;;;;0.63;0.30;;;17.60;43.30;;;;;;5069911;28;20045;-73
2021/05/02 12:44:34;;;;;;;1.65;0.40;;;18.00;42.30;;;;;;5049073;28;20055;-73
2021/05/02 12:47:03;;;;;;;1.02;0.50;;;18.50;41.40;;;;;;5051406;28;20045;-72
2021/05/02 12:49:34;;;;;;;2.60;0.40;;;18.30;41.00;;;;;;5069126;28;20125;-71
2021/05/02 12:52:03;;;;;;;1.08;0.40;;;17.30;41.90;;;;;;5059144;28;20064;-71
2021/05/02 12:54:34;;;;;;;0.40;0.28;;;16.30;42.00;;;;;;5050859;28;20068;-71
2021/05/02 12:57:07;;;;;;;1.33;0.60;;;15.10;42.80;;;;;;5052837;28;20056;-72
2021/05/02 12:59:39;;;;;;;0.45;0.30;;;14.00;43.90;;;;;;5052157;28;20044;-71
2021/05/02 13:02:26;;;;;;;1.58;0.30;;;13.30;45.60;;;;;;5073360;28;20036;-71
2021/05/02 13:05:00;;;;;;;2.08;0.80;;;12.90;46.00;;;;;;5061666;28;20044;-72
2021/05/02 13:07:36;;;;;;;1.65;0.40;;;12.90;46.70;;;;;;5067209;28;20036;-72